Time;durP1;ratioP1;P1;durP2;ratioP2;P2;SDS_P1;SDS_P2;PMS_P1;PMS_P2;Temp;Humidity;BMP_temperature;BMP_pressure;BME280_temperature;BME280_humidity;BME280_pressure;Samples;Min_cycle;Max_cycle;Signal;HPM_P1;HPM_P2
2023/09/28 00:01:12;;;;;;;;;;;18.40;99.90;;;;;;5059442;28;19916;-73
2023/09/28 00:03:38;;;;;;;;;;;18.60;99.90;;;;;;5059559;28;19909;-73
2023/09/28 00:06:03;;;;;;;;;;;18.60;99.90;;;;;;5059364;28;20501;-73
2023/09/28 00:08:29;;;;;;;;;;;18.60;99.90;;;;;;5059381;28;19944;-73
2023/09/28 00:10:54;;;;;;;;;;;18.70;99.90;;;;;;5059170;28;20395;-73
2023/09/28 00:13:20;;;;;;;;;;;18.70;99.90;;;;;;5057987;28;20422;-73
2023/09/28 00:15:46;;;;;;;;;;;18.80;99.90;;;;;;5057906;28;20457;-74
2023/09/28 00:18:12;;;;;;;;;;;18.80;99.90;;;;;;5059295;28;19962;-73
2023/09/28 00:20:38;;;;;;;;;;;18.90;99.90;;;;;;5059146;28;19946;-74
2023/09/28 00:23:04;;;;;;;;;;;18.90;99.90;;;;;;5059054;28;19913;-73
2023/09/28 00:25:29;;;;;;;;;;;18.90;99.90;;;;;;5057538;28;19909;-73
2023/09/28 00:27:55;;;;;;;;;;;19.00;99.90;;;;;;5057565;28;19963;-73
2023/09/28 00:30:22;;;;;;;;;;;19.00;99.90;;;;;;5059017;28;19924;-73
2023/09/28 00:32:48;;;;;;;;;;;19.00;99.90;;;;;;5058998;28;19909;-74
2023/09/28 00:35:14;;;;;;;;;;;18.90;99.90;;;;;;5083223;28;19909;-73
2023/09/28 00:37:40;;;;;;;;;;;18.80;99.90;;;;;;5054168;28;20714;-73
2023/09/28 00:40:51;;;;;;;;;;;18.80;99.90;;;;;;5058674;28;19917;-73
2023/09/28 00:42:52;;;;;;;;;;;18.80;99.90;;;;;;5054442;28;20012;-73
2023/09/28 00:45:19;;;;;;;;;;;18.70;99.90;;;;;;5058768;28;19940;-73
2023/09/28 00:47:45;;;;;;;;;;;18.70;99.90;;;;;;5058553;28;19908;-73
2023/09/28 00:50:14;;;;;;;;;;;18.60;99.90;;;;;;5058520;28;20293;-74
2023/09/28 00:52:44;;;;;;;;;;;18.60;99.90;;;;;;5058520;28;19909;-73
2023/09/28 00:55:11;;;;;;;;;;;18.50;99.90;;;;;;5056975;28;19916;-73
2023/09/28 00:57:38;;;;;;;;;;;18.40;99.90;;;;;;5058383;28;20487;-73
2023/09/28 01:02:50;;;;;;;;;;;18.40;99.90;;;;;;5058728;28;19915;-73
2023/09/28 01:05:19;;;;;;;;;;;18.30;99.90;;;;;;5056736;28;20408;-73
2023/09/28 01:07:44;;;;;;;;;;;18.20;99.90;;;;;;5058362;28;19909;-73
2023/09/28 01:10:13;;;;;;;;;;;18.10;99.90;;;;;;5057979;28;19923;-73
2023/09/28 01:12:39;;;;;;;;;;;18.10;99.90;;;;;;5057049;28;20022;-73
2023/09/28 01:15:09;;;;;;;;;;;18.00;99.90;;;;;;5058205;28;19917;-73
2023/09/28 01:17:36;;;;;;;;;;;17.90;99.90;;;;;;5058067;28;20364;-73
2023/09/28 01:20:10;;;;;;;;;;;17.90;99.90;;;;;;5057983;28;19913;-73
2023/09/28 01:22:36;;;;;;;;;;;17.90;99.90;;;;;;5057977;28;19916;-73
2023/09/28 01:25:03;;;;;;;;;;;17.90;99.90;;;;;;5056364;28;19913;-73
2023/09/28 01:27:29;;;;;;;;;;;17.90;99.90;;;;;;5057810;28;19921;-73
2023/09/28 01:29:54;;;;;;;;;;;17.90;99.90;;;;;;5071461;28;19917;-73
2023/09/28 01:32:20;;;;;;;;;;;18.00;99.90;;;;;;5049709;28;19912;-73
2023/09/28 01:34:45;;;;;;;;;;;18.00;99.90;;;;;;5057699;28;19915;-74
2023/09/28 01:37:11;;;;;;;;;;;18.00;99.90;;;;;;5057645;28;19912;-73
2023/09/28 01:39:37;;;;;;;;;;;18.00;99.90;;;;;;5057541;28;19919;-73
2023/09/28 01:42:03;;;;;;;;;;;18.00;99.90;;;;;;5078208;28;19913;-73
2023/09/28 01:44:29;;;;;;;;;;;18.10;99.90;;;;;;5055644;28;19991;-73
2023/09/28 01:46:54;;;;;;;;;;;18.10;99.90;;;;;;5057624;28;20430;-73
2023/09/28 01:49:20;;;;;;;;;;;18.00;99.90;;;;;;5057383;28;20339;-73
2023/09/28 01:51:45;;;;;;;;;;;17.90;99.90;;;;;;5056020;28;20415;-73
2023/09/28 01:54:11;;;;;;;;;;;17.90;99.90;;;;;;5056000;28;20381;-73
2023/09/28 01:56:36;;;;;;;;;;;17.90;99.90;;;;;;5078268;28;20332;-73
2023/09/28 01:59:02;;;;;;;;;;;17.90;99.90;;;;;;5054931;28;19919;-73
2023/09/28 02:01:28;;;;;;;;;;;17.90;99.90;;;;;;5055934;28;19991;-73
2023/09/28 02:03:54;;;;;;;;;;;18.00;99.90;;;;;;5055830;28;20426;-73
2023/09/28 02:06:19;;;;;;;;;;;17.90;99.90;;;;;;5055715;28;19909;-73
2023/09/28 02:08:45;;;;;;;;;;;17.80;99.90;;;;;;5057137;28;19931;-73
2023/09/28 02:11:11;;;;;;;;;;;17.70;99.90;;;;;;5056943;28;20291;-73
2023/09/28 02:13:36;;;;;;;;;;;17.60;99.90;;;;;;5057021;28;19954;-73
2023/09/28 02:16:03;;;;;;;;;;;17.60;99.90;;;;;;5056943;28;19913;-74
2023/09/28 02:18:28;;;;;;;;;;;17.50;99.90;;;;;;5056928;28;19912;-73
2023/09/28 02:20:54;;;;;;;;;;;17.40;99.90;;;;;;5056806;28;19919;-73
2023/09/28 02:23:21;;;;;;;;;;;17.30;99.90;;;;;;5056307;28;20012;-73
2023/09/28 02:25:47;;;;;;;;;;;17.30;99.90;;;;;;5056744;28;19916;-73
2023/09/28 02:28:13;;;;;;;;;;;17.30;99.90;;;;;;5056576;28;19921;-73
2023/09/28 02:30:39;;;;;;;;;;;17.20;99.90;;;;;;5055384;28;19956;-73
2023/09/28 02:33:06;;;;;;;;;;;17.20;99.90;;;;;;5056596;28;20388;-74
2023/09/28 02:35:32;;;;;;;;;;;17.20;99.90;;;;;;5056551;28;19909;-74
2023/09/28 02:37:57;;;;;;;;;;;17.10;99.90;;;;;;5056531;28;19915;-73
2023/09/28 02:40:23;;;;;;;;;;;17.10;99.90;;;;;;5077591;28;19909;-73
2023/09/28 02:42:50;;;;;;;;;;;17.00;99.90;;;;;;5053949;28;20281;-73
2023/09/28 02:45:15;;;;;;;;;;;17.00;99.90;;;;;;5056522;28;19966;-73
2023/09/28 02:47:41;;;;;;;;;;;17.00;99.90;;;;;;5056448;28;19909;-73
2023/09/28 02:50:09;;;;;;;;;;;16.90;99.90;;;;;;5056348;28;19958;-74
2023/09/28 02:52:35;;;;;;;;;;;16.90;99.90;;;;;;5056423;28;19917;-74
2023/09/28 02:55:02;;;;;;;;;;;16.90;99.90;;;;;;5056112;28;19924;-73
2023/09/28 02:57:28;;;;;;;;;;;16.80;99.90;;;;;;5056265;28;19999;-74
2023/09/28 02:59:53;;;;;;;;;;;16.80;99.90;;;;;;5056392;28;19974;-73
2023/09/28 03:02:20;;;;;;;;;;;16.80;99.90;;;;;;5056262;28;19916;-73
2023/09/28 03:04:45;;;;;;;;;;;16.80;99.90;;;;;;5077214;28;19959;-73
2023/09/28 03:07:11;;;;;;;;;;;16.70;99.90;;;;;;5053872;28;19917;-73
2023/09/28 03:09:36;;;;;;;;;;;16.70;99.90;;;;;;5054635;28;19952;-73
2023/09/28 03:12:03;;;;;;;;;;;16.70;99.90;;;;;;5056078;28;19909;-73
2023/09/28 03:14:28;;;;;;;;;;;16.70;99.90;;;;;;5054823;28;19909;-73
2023/09/28 03:16:54;;;;;;;;;;;16.70;99.90;;;;;;5055980;28;19916;-73
2023/09/28 03:19:20;;;;;;;;;;;16.60;99.90;;;;;;5056067;28;19923;-74
2023/09/28 03:21:45;;;;;;;;;;;16.60;99.90;;;;;;5054383;28;20027;-73
2023/09/28 03:24:11;;;;;;;;;;;16.60;99.90;;;;;;5056263;28;19913;-73
2023/09/28 03:26:38;;;;;;;;;;;16.60;99.90;;;;;;5055905;28;19921;-73
2023/09/28 03:29:03;;;;;;;;;;;16.50;99.90;;;;;;5056080;28;19944;-74
2023/09/28 03:31:29;;;;;;;;;;;16.50;99.90;;;;;;5054556;28;19931;-74
2023/09/28 03:33:55;;;;;;;;;;;16.50;99.90;;;;;;5056279;28;19908;-74
2023/09/28 03:36:21;;;;;;;;;;;16.50;99.90;;;;;;5059791;28;19920;-73
2023/09/28 03:38:47;;;;;;;;;;;16.50;99.90;;;;;;5058588;28;20388;-74
2023/09/28 03:41:13;;;;;;;;;;;16.40;99.90;;;;;;5058333;28;19916;-74
2023/09/28 03:43:39;;;;;;;;;;;16.40;99.90;;;;;;5059823;28;19909;-74
2023/09/28 03:46:05;;;;;;;;;;;16.40;99.90;;;;;;5059788;28;19920;-74
2023/09/28 03:48:30;;;;;;;;;;;16.30;99.90;;;;;;5081169;28;19913;-73
2023/09/28 03:50:56;;;;;;;;;;;16.30;99.90;;;;;;5071630;28;19968;-74
2023/09/28 03:53:22;;;;;;;;;;;16.20;99.90;;;;;;5071668;28;19913;-74
2023/09/28 03:55:49;;;;;;;;;;;16.20;99.90;;;;;;5056629;28;19917;-74
2023/09/28 03:58:15;;;;;;;;;;;16.20;99.90;;;;;;5059855;28;19931;-74
2023/09/28 04:00:42;;;;;;;;;;;16.20;99.90;;;;;;5059571;28;19917;-74
2023/09/28 04:03:07;;;;;;;;;;;16.20;99.90;;;;;;5058218;28;19944;-74
2023/09/28 04:05:33;;;;;;;;;;;16.20;99.90;;;;;;5059302;28;19920;-73
2023/09/28 04:07:58;;;;;;;;;;;16.20;99.90;;;;;;5059409;28;19909;-73
2023/09/28 04:10:24;;;;;;;;;;;16.20;99.90;;;;;;5057830;28;20316;-73
2023/09/28 04:12:50;;;;;;;;;;;16.10;99.90;;;;;;5059350;28;19916;-73
2023/09/28 04:15:16;;;;;;;;;;;16.00;99.90;;;;;;5059315;28;19909;-73
2023/09/28 04:17:41;;;;;;;;;;;16.00;99.90;;;;;;5057862;28;20286;-73
2023/09/28 04:20:09;;;;;;;;;;;15.90;99.90;;;;;;5057845;28;19916;-73
2023/09/28 04:22:35;;;;;;;;;;;15.90;99.90;;;;;;5059140;28;20394;-74
2023/09/28 04:25:01;;;;;;;;;;;15.90;99.90;;;;;;5058936;28;19913;-74
2023/09/28 04:27:26;;;;;;;;;;;15.80;99.90;;;;;;5058355;28;19928;-73
2023/09/28 04:29:52;;;;;;;;;;;15.80;99.90;;;;;;5056518;28;19916;-74
2023/09/28 04:32:17;;;;;;;;;;;15.80;99.90;;;;;;5057844;28;19909;-73
2023/09/28 04:34:43;;;;;;;;;;;15.80;99.90;;;;;;5057613;28;19999;-74
2023/09/28 04:37:09;;;;;;;;;;;15.70;99.90;;;;;;5057615;28;19921;-73
2023/09/28 04:39:34;;;;;;;;;;;15.70;99.90;;;;;;5057499;28;20404;-73
2023/09/28 04:42:00;;;;;;;;;;;15.70;99.90;;;;;;5057641;28;19913;-74
2023/09/28 04:44:26;;;;;;;;;;;15.70;99.90;;;;;;5057442;28;20373;-74
2023/09/28 04:46:51;;;;;;;;;;;15.60;99.90;;;;;;5057157;28;19955;-73
2023/09/28 04:49:17;;;;;;;;;;;15.60;99.90;;;;;;5057434;28;19971;-73
2023/09/28 04:51:43;;;;;;;;;;;15.60;99.90;;;;;;5057371;28;19913;-73
2023/09/28 04:54:08;;;;;;;;;;;15.60;99.90;;;;;;5057162;28;19916;-73
2023/09/28 04:56:34;;;;;;;;;;;15.60;99.90;;;;;;5057324;28;19917;-73
2023/09/28 04:58:59;;;;;;;;;;;15.50;99.90;;;;;;5057327;28;20407;-73
2023/09/28 05:01:25;;;;;;;;;;;15.50;99.90;;;;;;5057380;28;20395;-73
2023/09/28 05:03:51;;;;;;;;;;;15.50;99.90;;;;;;5055890;28;20385;-74
2023/09/28 05:06:16;;;;;;;;;;;15.50;99.90;;;;;;5057161;28;20278;-74
2023/09/28 05:08:42;;;;;;;;;;;15.40;99.90;;;;;;5057157;28;19908;-73
2023/09/28 05:11:08;;;;;;;;;;;15.40;99.90;;;;;;5057006;28;19920;-74
2023/09/28 05:13:35;;;;;;;;;;;15.40;99.90;;;;;;5071921;28;19909;-73
2023/09/28 05:16:00;;;;;;;;;;;15.40;99.90;;;;;;5047656;28;20013;-74
2023/09/28 05:18:26;;;;;;;;;;;15.40;99.90;;;;;;5055715;28;20392;-74
2023/09/28 05:20:51;;;;;;;;;;;15.40;99.90;;;;;;5057008;28;19913;-74
2023/09/28 05:23:17;;;;;;;;;;;15.30;99.90;;;;;;5056898;28;19945;-74
2023/09/28 05:25:43;;;;;;;;;;;15.30;99.90;;;;;;5056744;28;19959;-73
2023/09/28 05:28:08;;;;;;;;;;;15.30;99.90;;;;;;4989543;28;1932085;-73
2023/09/28 05:30:34;;;;;;;;;;;15.30;99.90;;;;;;5057847;28;19917;-73
2023/09/28 05:33:00;;;;;;;;;;;15.30;99.90;;;;;;5057900;28;19913;-73
2023/09/28 05:35:25;;;;;;;;;;;15.20;99.90;;;;;;5056276;28;20385;-74
2023/09/28 05:37:51;;;;;;;;;;;15.20;99.90;;;;;;5057622;28;19909;-74
2023/09/28 05:40:16;;;;;;;;;;;15.20;99.90;;;;;;5057553;28;19909;-74
2023/09/28 05:42:42;;;;;;;;;;;15.10;99.90;;;;;;5056337;28;19909;-73
2023/09/28 05:45:09;;;;;;;;;;;15.10;99.90;;;;;;5057459;28;19909;-73
2023/09/28 05:47:37;;;;;;;;;;;15.10;99.90;;;;;;5057462;28;19916;-73
2023/09/28 05:50:04;;;;;;;;;;;15.10;99.90;;;;;;5056032;28;20327;-74
2023/09/28 05:52:29;;;;;;;;;;;15.00;99.90;;;;;;5057459;28;19967;-74
2023/09/28 05:54:55;;;;;;;;;;;15.00;99.90;;;;;;5057246;28;19980;-73
2023/09/28 05:57:22;;;;;;;;;;;15.00;99.90;;;;;;5055161;28;19921;-72
2023/09/28 05:59:50;;;;;;;;;;;14.90;99.90;;;;;;5057435;28;19964;-72
2023/09/28 06:02:16;;;;;;;;;;;14.90;99.90;;;;;;5057190;28;19909;-72
2023/09/28 06:04:42;;;;;;;;;;;15.00;99.90;;;;;;5057125;28;20335;-72
2023/09/28 06:07:09;;;;;;;;;;;14.90;99.90;;;;;;5055766;28;20447;-72
2023/09/28 06:09:35;;;;;;;;;;;15.00;99.90;;;;;;5056943;28;19913;-73
2023/09/28 06:12:01;;;;;;;;;;;15.00;99.90;;;;;;5057058;28;19912;-73
2023/09/28 06:14:27;;;;;;;;;;;15.00;99.90;;;;;;5057013;28;19935;-72
2023/09/28 06:16:53;;;;;;;;;;;15.00;99.90;;;;;;5055525;28;20343;-73
2023/09/28 06:19:19;;;;;;;;;;;15.00;99.90;;;;;;5056868;28;20003;-72
2023/09/28 06:21:44;;;;;;;;;;;15.00;99.90;;;;;;5056765;28;19976;-73
2023/09/28 06:24:10;;;;;;;;;;;15.00;99.90;;;;;;5056675;28;20433;-73
2023/09/28 06:26:37;;;;;;;;;;;15.10;99.90;;;;;;5056736;28;19908;-73
2023/09/28 06:29:03;;;;;;;;;;;15.10;99.90;;;;;;5056822;28;19917;-73
2023/09/28 06:31:29;;;;;;;;;;;15.10;99.90;;;;;;5056767;28;19990;-73
2023/09/28 06:33:54;;;;;;;;;;;15.10;99.90;;;;;;5055347;28;19912;-73
2023/09/28 06:36:21;;;;;;;;;;;15.20;99.90;;;;;;5056192;28;19927;-73
2023/09/28 06:38:47;;;;;;;;;;;15.20;99.90;;;;;;5056593;28;19919;-74
2023/09/28 06:41:13;;;;;;;;;;;15.10;99.90;;;;;;5070410;28;20369;-72
2023/09/28 06:43:39;;;;;;;;;;;15.20;99.90;;;;;;5047870;28;19916;-72
2023/09/28 06:46:04;;;;;;;;;;;15.20;99.90;;;;;;5068555;28;19913;-72
2023/09/28 06:48:30;;;;;;;;;;;15.20;99.90;;;;;;5047857;28;19947;-72
2023/09/28 06:50:59;;;;;;;;;;;15.30;99.90;;;;;;5054993;28;19909;-72
2023/09/28 06:53:25;;;;;;;;;;;15.30;99.90;;;;;;5056441;28;20003;-72
2023/09/28 06:55:51;;;;;;;;;;;15.40;99.90;;;;;;5055976;28;19959;-72
2023/09/28 06:58:17;;;;;;;;;;;15.40;99.90;;;;;;5056423;28;20396;-74
2023/09/28 07:00:46;;;;;;;;;;;15.50;99.90;;;;;;5056291;28;19909;-72
2023/09/28 07:03:12;;;;;;;;;;;15.50;99.90;;;;;;5056312;28;19956;-72
2023/09/28 07:05:38;;;;;;;;;;;15.60;99.90;;;;;;5054718;28;19909;-73
2023/09/28 07:08:05;;;;;;;;;;;15.70;99.90;;;;;;5056095;28;19966;-73
2023/09/28 07:10:39;;;;;;;;;;;15.80;99.90;;;;;;5054499;28;19996;-72
2023/09/28 07:13:06;;;;;;;;;;;15.90;99.90;;;;;;5056181;28;19909;-72
2023/09/28 07:15:32;;;;;;;;;;;16.10;99.90;;;;;;5056079;28;19917;-72
2023/09/28 07:17:58;;;;;;;;;;;16.20;99.90;;;;;;5056098;28;20266;-72
2023/09/28 07:20:25;;;;;;;;;;;16.30;99.90;;;;;;5054472;28;19917;-72
2023/09/28 07:22:50;;;;;;;;;;;16.40;99.90;;;;;;5054553;28;19909;-72
2023/09/28 07:25:16;;;;;;;;;;;16.50;99.90;;;;;;5054451;28;19916;-72
2023/09/28 07:27:42;;;;;;;;;;;16.70;99.90;;;;;;5055874;28;19956;-72
2023/09/28 07:30:08;;;;;;;;;;;16.90;99.90;;;;;;5043061;28;19913;-72
2023/09/28 07:32:34;;;;;;;;;;;17.00;99.90;;;;;;5056106;28;20040;-72
2023/09/28 07:35:00;;;;;;;;;;;17.20;99.90;;;;;;5054686;28;19913;-72
2023/09/28 07:37:27;;;;;;;;;;;17.30;99.90;;;;;;5054293;28;19958;-73
2023/09/28 07:39:53;;;;;;;;;;;17.40;99.90;;;;;;5055647;28;20320;-73
2023/09/28 07:42:19;;;;;;;;;;;17.50;99.90;;;;;;5055748;28;19909;-73
2023/09/28 07:44:45;;;;;;;;;;;17.60;99.90;;;;;;5055697;28;19983;-73
2023/09/28 07:47:10;;;;;;;;;;;17.80;99.90;;;;;;5055802;28;20476;-73
2023/09/28 07:49:36;;;;;;;;;;;17.90;99.90;;;;;;5055839;28;19913;-73
2023/09/28 07:52:02;;;;;;;;;;;18.00;99.90;;;;;;5054270;28;19915;-73
2023/09/28 07:54:28;;;;;;;;;;;18.10;99.90;;;;;;5055550;28;20012;-73
2023/09/28 07:56:55;;;;;;;;;;;18.20;99.90;;;;;;5054288;28;20054;-73
2023/09/28 07:59:21;;;;;;;;;;;18.40;99.90;;;;;;5055724;28;20435;-73
2023/09/28 08:01:48;;;;;;;;;;;18.50;99.90;;;;;;5054408;28;19909;-73
2023/09/28 08:04:13;;;;;;;;;;;18.70;99.90;;;;;;5054333;28;19913;-73
2023/09/28 08:06:42;;;;;;;;;;;18.80;99.90;;;;;;5055444;28;19976;-73
2023/09/28 08:09:13;;;;;;;;;;;18.80;99.90;;;;;;5055392;28;19912;-72
2023/09/28 08:11:39;;;;;;;;;;;18.90;99.90;;;;;;5054436;28;19913;-73
2023/09/28 08:14:05;;;;;;;;;;;19.00;99.90;;;;;;5055524;28;19913;-73
2023/09/28 08:16:30;;;;;;;;;;;19.00;99.90;;;;;;5055458;28;20316;-73
2023/09/28 08:18:56;;;;;;;;;;;19.10;99.90;;;;;;5079264;28;19913;-73
2023/09/28 08:21:24;;;;;;;;;;;19.20;99.90;;;;;;5053179;28;19913;-73
2023/09/28 08:23:50;;;;;;;;;;;19.30;99.90;;;;;;5057731;28;19909;-73
2023/09/28 08:26:16;;;;;;;;;;;19.40;99.90;;;;;;5058992;28;19959;-73
2023/09/28 08:28:42;;;;;;;;;;;19.50;99.90;;;;;;5057587;28;20015;-73
2023/09/28 08:31:08;;;;;;;;;;;19.60;99.90;;;;;;5057617;28;19916;-72
2023/09/28 08:33:34;;;;;;;;;;;19.80;99.90;;;;;;5057685;28;19913;-72
2023/09/28 08:36:00;;;;;;;;;;;19.70;99.90;;;;;;5058750;28;20284;-73
2023/09/28 08:38:25;;;;;;;;;;;19.80;99.90;;;;;;5058909;28;19908;-73
2023/09/28 08:40:55;;;;;;;;;;;19.90;99.90;;;;;;5058645;28;19917;-73
2023/09/28 08:43:21;;;;;;;;;;;20.00;99.90;;;;;;5058609;28;19920;-73
2023/09/28 08:45:50;;;;;;;;;;;20.10;99.90;;;;;;5072543;28;19967;-72
2023/09/28 08:48:17;;;;;;;;;;;20.20;99.90;;;;;;5058840;28;19962;-73
2023/09/28 08:50:44;;;;;;;;;;;20.40;99.90;;;;;;5057457;28;19909;-73
2023/09/28 08:53:10;;;;;;;;;;;20.40;99.90;;;;;;5058667;28;19917;-73
2023/09/28 08:55:37;;;;;;;;;;;20.50;99.90;;;;;;5058252;28;19916;-73
2023/09/28 08:58:04;;;;;;;;;;;20.50;99.90;;;;;;5057294;28;19909;-73
2023/09/28 09:00:29;;;;;;;;;;;20.60;99.90;;;;;;5057157;28;19919;-73
2023/09/28 09:02:56;;;;;;;;;;;20.80;99.90;;;;;;5057168;28;19913;-73
2023/09/28 09:05:22;;;;;;;;;;;20.90;99.90;;;;;;5058330;28;19935;-73
2023/09/28 09:07:49;;;;;;;;;;;21.00;99.90;;;;;;5058325;28;19912;-73
2023/09/28 09:10:17;;;;;;;;;;;21.10;99.90;;;;;;5058133;28;19912;-73
2023/09/28 09:12:43;;;;;;;;;;;21.10;99.90;;;;;;5058325;28;20015;-73
2023/09/28 09:15:09;;;;;;;;;;;21.10;99.90;;;;;;5058186;28;19944;-73
2023/09/28 09:17:35;;;;;;;;;;;21.30;99.90;;;;;;5058092;28;19913;-73
2023/09/28 09:20:01;;;;;;;;;;;21.40;99.90;;;;;;5057941;28;19924;-73
2023/09/28 09:22:28;;;;;;;;;;;21.50;99.90;;;;;;5057997;28;19909;-72
2023/09/28 09:24:54;;;;;;;;;;;21.50;99.90;;;;;;5056479;28;20008;-73
2023/09/28 09:27:29;;;;;;;;;;;21.60;99.90;;;;;;5056518;28;19928;-73
2023/09/28 09:29:58;;;;;;;;;;;21.60;99.90;;;;;;5057841;28;20372;-73
2023/09/28 09:32:25;;;;;;;;;;;21.70;99.90;;;;;;5055473;28;19919;-72
2023/09/28 09:34:52;;;;;;;;;;;21.80;99.90;;;;;;5057696;28;19944;-73
2023/09/28 09:37:19;;;;;;;;;;;21.80;99.90;;;;;;5057833;28;20339;-73
2023/09/28 09:39:45;;;;;;;;;;;21.90;99.90;;;;;;5057534;28;19909;-73
2023/09/28 09:42:11;;;;;;;;;;;21.90;99.90;;;;;;5056475;28;20000;-72
2023/09/28 09:44:36;;;;;;;;;;;22.00;99.90;;;;;;5056196;28;19937;-73
2023/09/28 09:47:02;;;;;;;;;;;22.10;99.90;;;;;;5056306;28;20450;-72
2023/09/28 09:49:27;;;;;;;;;;;22.20;99.90;;;;;;5057554;28;20346;-74
2023/09/28 09:51:53;;;;;;;;;;;22.20;99.90;;;;;;5056010;28;19917;-72
2023/09/28 09:54:19;;;;;;;;;;;22.30;99.90;;;;;;5057208;28;20422;-72
2023/09/28 09:56:49;;;;;;;;;;;22.40;99.90;;;;;;5057430;28;20364;-72
2023/09/28 09:59:18;;;;;;;;;;;22.40;99.90;;;;;;5057295;28;20285;-73
2023/09/28 10:01:47;;;;;;;;;;;22.50;99.90;;;;;;5057339;28;20058;-73
2023/09/28 10:04:17;;;;;;;;;;;22.60;99.90;;;;;;5057203;28;19916;-73
2023/09/28 10:06:44;;;;;;;;;;;22.60;99.90;;;;;;5057115;28;19913;-73
2023/09/28 10:09:10;;;;;;;;;;;22.70;99.90;;;;;;5057027;28;19912;-73
2023/09/28 10:11:39;;;;;;;;;;;22.80;99.90;;;;;;5057136;28;19908;-72
2023/09/28 10:14:05;;;;;;;;;;;22.90;99.90;;;;;;5055726;28;19912;-73
2023/09/28 10:16:34;;;;;;;;;;;22.90;99.90;;;;;;5056972;28;19920;-73
2023/09/28 10:19:00;;;;;;;;;;;23.00;99.90;;;;;;5056971;28;20305;-73
2023/09/28 10:21:26;;;;;;;;;;;23.10;99.90;;;;;;5056949;28;19909;-73
2023/09/28 10:23:56;;;;;;;;;;;23.20;99.90;;;;;;5056882;28;19935;-73
2023/09/28 10:26:28;;;;;;;;;;;23.30;99.90;;;;;;5056660;28;19912;-73
2023/09/28 10:29:20;;;;;;;;;;;23.40;99.90;;;;;;5056860;28;20376;-72
2023/09/28 10:31:46;;;;;;;;;;;23.50;99.90;;;;;;5053300;28;19982;-73
2023/09/28 10:34:21;;;;;;;;;;;23.60;99.90;;;;;;5057011;28;19909;-73
2023/09/28 10:37:10;;;;;;;;;;;23.60;99.90;;;;;;5056514;28;20364;-73
2023/09/28 10:39:36;;;;;;;;;;;23.60;99.90;;;;;;5088685;28;19951;-73
2023/09/28 10:42:08;;;;;;;;;;;23.70;99.90;;;;;;5056618;28;19909;-73
2023/09/28 10:44:34;;;;;;;;;;;23.80;99.90;;;;;;5054682;28;19913;-73
2023/09/28 10:46:59;;;;;;;;;;;24.00;99.90;;;;;;5056500;28;19909;-73
2023/09/28 10:49:26;;;;;;;;;;;24.10;99.90;;;;;;5056350;28;20014;-73
2023/09/28 10:51:52;;;;;;;;;;;24.10;99.90;;;;;;5055051;28;20460;-73
2023/09/28 10:54:18;;;;;;;;;;;24.20;99.90;;;;;;5054836;28;19923;-73
2023/09/28 10:56:48;;;;;;;;;;;24.40;99.90;;;;;;5056337;28;20319;-73
2023/09/28 10:59:13;;;;;;;;;;;24.40;99.90;;;;;;5055011;28;19913;-74
2023/09/28 11:01:42;;;;;;;;;;;24.50;99.90;;;;;;5055058;28;19909;-73
2023/09/28 11:04:11;;;;;;;;;;;24.50;99.90;;;;;;5054854;28;19947;-73
2023/09/28 11:06:37;;;;;;;;;;;24.50;99.90;;;;;;5075286;28;19936;-73
2023/09/28 11:09:02;;;;;;;;;;;24.60;99.90;;;;;;5055644;28;20335;-73
2023/09/28 11:11:29;;;;;;;;;;;24.70;99.90;;;;;;5056280;28;19909;-72
2023/09/28 11:13:58;;;;;;;;;;;24.70;99.90;;;;;;5054966;28;19909;-73
2023/09/28 11:16:23;;;;;;;;;;;24.80;99.90;;;;;;5056009;28;19935;-73
2023/09/28 11:18:49;;;;;;;;;;;24.80;99.90;;;;;;5056102;28;19912;-72
2023/09/28 11:21:15;;;;;;;;;;;24.90;99.90;;;;;;5054651;28;19916;-73
2023/09/28 11:23:40;;;;;;;;;;;25.00;99.90;;;;;;5055972;28;19955;-72
2023/09/28 11:26:08;;;;;;;;;;;25.20;99.90;;;;;;5055525;28;19908;-73
2023/09/28 11:28:34;;;;;;;;;;;25.30;99.90;;;;;;5055821;28;19924;-73
2023/09/28 11:31:07;;;;;;;;;;;25.40;99.90;;;;;;5055944;28;20000;-73
2023/09/28 11:33:34;;;;;;;;;;;25.50;99.90;;;;;;5054686;28;19936;-73
2023/09/28 11:35:59;;;;;;;;;;;25.50;99.90;;;;;;5055840;28;19917;-73
2023/09/28 11:38:25;;;;;;;;;;;25.60;99.90;;;;;;5088078;28;19916;-72
2023/09/28 11:40:54;;;;;;;;;;;25.60;99.90;;;;;;5055705;28;19920;-73
2023/09/28 11:43:20;;;;;;;;;;;25.80;99.90;;;;;;5055664;28;19920;-73
2023/09/28 11:45:47;;;;;;;;;;;25.90;99.90;;;;;;5088027;28;19909;-73
2023/09/28 11:48:16;;;;;;;;;;;26.00;99.90;;;;;;5054593;28;20697;-73
2023/09/28 11:50:41;;;;;;;;;;;26.00;99.90;;;;;;5055602;28;19909;-73
2023/09/28 11:53:10;;;;;;;;;;;26.10;99.90;;;;;;5055787;28;19915;-73
2023/09/28 11:55:36;;;;;;;;;;;26.40;99.90;;;;;;5051753;28;19918;-73
2023/09/28 11:58:02;;;;;;;;;;;26.40;99.90;;;;;;5053553;28;19920;-73
2023/09/28 12:00:28;;;;;;;;;;;26.50;99.90;;;;;;5052025;28;19920;-73
2023/09/28 12:02:54;;;;;;;;;;;26.50;99.90;;;;;;5057860;28;19909;-73
2023/09/28 12:05:20;;;;;;;;;;;26.60;99.90;;;;;;5059446;28;19909;-74
2023/09/28 12:07:45;;;;;;;;;;;26.70;99.90;;;;;;5059006;28;19919;-74
2023/09/28 12:10:11;;;;;;;;;;;26.80;99.90;;;;;;5058932;28;19968;-73
2023/09/28 12:12:40;;;;;;;;;;;26.80;99.90;;;;;;5048165;28;19935;-74
2023/09/28 12:15:10;;;;;;;;;;;26.80;99.90;;;;;;5058944;28;20350;-74
2023/09/28 12:17:39;;;;;;;;;;;27.00;99.90;;;;;;5058707;28;19921;-74
2023/09/28 12:20:09;;;;;;;;;;;27.20;99.90;;;;;;5058832;28;19913;-74
2023/09/28 12:22:35;;;;;;;;;;;27.30;99.90;;;;;;5058778;28;19959;-74
2023/09/28 12:25:01;;;;;;;;;;;27.40;99.90;;;;;;5070737;28;19916;-73
2023/09/28 12:27:27;;;;;;;;;;;27.50;99.90;;;;;;5073795;28;19921;-73
2023/09/28 12:29:53;;;;;;;;;;;27.60;99.90;;;;;;5058761;28;19954;-74
2023/09/28 12:32:18;;;;;;;;;;;27.60;99.90;;;;;;5058598;28;19921;-74
2023/09/28 12:34:44;;;;;;;;;;;27.60;99.90;;;;;;5073762;28;19920;-73
2023/09/28 12:37:09;;;;;;;;;;;27.60;99.90;;;;;;5073832;28;19917;-73
2023/09/28 12:39:35;;;;;;;;;;;27.70;99.90;;;;;;5058415;28;19916;-74
2023/09/28 12:42:01;;;;;;;;;;;27.90;99.90;;;;;;5058772;28;20292;-73
2023/09/28 12:44:28;;;;;;;;;;;28.00;99.90;;;;;;5057271;28;19995;-74
2023/09/28 12:46:53;;;;;;;;;;;27.90;99.90;;;;;;5058593;28;20343;-74
2023/09/28 12:49:20;;;;;;;;;;;27.90;99.90;;;;;;5090462;28;19959;-73
2023/09/28 12:51:47;;;;;;;;;;;28.00;99.90;;;;;;5065200;28;19908;-73
2023/09/28 12:54:19;;;;;;;;;;;28.10;99.90;;;;;;5057847;28;19909;-74
2023/09/28 12:56:45;;;;;;;;;;;28.20;99.90;;;;;;5058302;28;19917;-74
2023/09/28 12:59:15;;;;;;;;;;;28.20;99.90;;;;;;5056797;28;20438;-73
2023/09/28 13:01:41;;;;;;;;;;;28.30;98.20;;;;;;5058144;28;20037;-74
2023/09/28 13:04:07;;;;;;;;;;;28.30;99.90;;;;;;5058094;28;19956;-75
2023/09/28 13:06:32;;;;;;;;;;;28.40;99.90;;;;;;5056148;28;19916;-76
2023/09/28 13:09:00;;;;;;;;;;;28.50;99.40;;;;;;5056504;28;19909;-74
2023/09/28 13:11:29;;;;;;;;;;;28.50;97.60;;;;;;5058318;28;19912;-74
2023/09/28 13:13:55;;;;;;;;;;;28.60;99.30;;;;;;5090042;28;19916;-74
2023/09/28 13:16:22;;;;;;;;;;;28.60;98.10;;;;;;5057960;28;19917;-73
2023/09/28 13:18:49;;;;;;;;;;;28.70;95.70;;;;;;5057583;28;20000;-74
2023/09/28 13:21:14;;;;;;;;;;;28.80;94.70;;;;;;5057805;28;19909;-73
2023/09/28 13:23:40;;;;;;;;;;;28.90;93.20;;;;;;5057161;28;19916;-74
2023/09/28 13:26:08;;;;;;;;;;;29.00;94.50;;;;;;5057774;28;20046;-74
2023/09/28 13:28:34;;;;;;;;;;;29.00;93.30;;;;;;5057237;28;20036;-74
2023/09/28 13:31:05;;;;;;;;;;;29.00;94.90;;;;;;5089945;28;19948;-74
2023/09/28 13:33:32;;;;;;;;;;;29.00;93.70;;;;;;5068592;28;19912;-73
2023/09/28 13:35:57;;;;;;;;;;;29.00;91.40;;;;;;5057413;28;19913;-73
2023/09/28 13:38:23;;;;;;;;;;;29.00;90.10;;;;;;5073153;28;20273;-74
2023/09/28 13:40:49;;;;;;;;;;;29.10;93.20;;;;;;5057351;28;20291;-73
2023/09/28 13:43:16;;;;;;;;;;;29.20;90.40;;;;;;5057359;28;19999;-74
2023/09/28 13:45:42;;;;;;;;;;;29.20;93.00;;;;;;5057506;28;20724;-73
2023/09/28 13:48:07;;;;;;;;;;;29.40;89.70;;;;;;5057341;28;19952;-75
2023/09/28 13:50:33;;;;;;;;;;;29.50;91.70;;;;;;5056846;28;20411;-74
2023/09/28 13:52:59;;;;;;;;;;;29.50;91.10;;;;;;5055919;28;20343;-74
2023/09/28 13:55:25;;;;;;;;;;;29.50;91.20;;;;;;5056900;28;19916;-73
2023/09/28 13:57:51;;;;;;;;;;;29.50;91.20;;;;;;5057093;28;20312;-73
2023/09/28 14:00:33;;;;;;;;;;;29.50;84.20;;;;;;5057076;28;19912;-73
2023/09/28 14:02:59;;;;;;;;;;;29.50;86.80;;;;;;5057158;28;19913;-73
2023/09/28 14:05:25;;;;;;;;;;;29.50;85.60;;;;;;5056346;28;19913;-74
2023/09/28 14:07:50;;;;;;;;;;;29.50;84.30;;;;;;5056905;28;19999;-73
2023/09/28 14:10:17;;;;;;;;;;;29.50;86.30;;;;;;5055165;28;20351;-73
2023/09/28 14:12:44;;;;;;;;;;;29.70;85.00;;;;;;5072314;28;19912;-74
2023/09/28 14:15:11;;;;;;;;;;;29.70;88.60;;;;;;5055621;28;19916;-73